createdAt,value
2023-04-10T00:00:32.594Z,2.95
2023-04-10T00:03:04.341Z,2.80
2023-04-10T00:05:31.554Z,2.70
2023-04-10T00:07:58.296Z,3.03
2023-04-10T00:10:26.692Z,2.42
2023-04-10T00:12:54.215Z,2.63
2023-04-10T00:15:21.190Z,3.13
2023-04-10T00:17:48.198Z,3.13
2023-04-10T00:20:14.978Z,2.95
2023-04-10T00:22:43.000Z,2.75
2023-04-10T00:25:09.815Z,2.30
2023-04-10T00:27:36.528Z,4.13
2023-04-10T00:30:03.405Z,2.70
2023-04-10T00:32:30.290Z,2.08
2023-04-10T00:34:57.044Z,2.55
2023-04-10T00:37:23.811Z,2.45
2023-04-10T00:39:50.655Z,2.22
2023-04-10T00:42:17.357Z,2.45
2023-04-10T00:44:45.043Z,2.00
2023-04-10T00:47:14.277Z,2.55
2023-04-10T00:49:41.859Z,2.97
2023-04-10T00:52:09.376Z,2.65
2023-04-10T00:54:36.793Z,2.60
2023-04-10T00:57:07.647Z,2.40
2023-04-10T00:59:35.634Z,2.75
2023-04-10T01:02:02.936Z,1.63
2023-04-10T01:04:32.092Z,2.03
2023-04-10T01:07:10.726Z,2.13
2023-04-10T01:10:08.344Z,2.67
2023-04-10T01:13:26.975Z,2.53
2023-04-10T01:16:05.682Z,2.42
2023-04-10T01:18:53.640Z,2.15
2023-04-10T01:21:22.672Z,1.88
2023-04-10T01:24:18.648Z,2.08
2023-04-10T01:27:26.395Z,2.33
2023-04-10T01:29:57.942Z,2.53
2023-04-10T01:32:25.453Z,2.20
2023-04-10T01:34:55.798Z,2.17
2023-04-10T01:37:27.627Z,2.78
2023-04-10T01:40:16.469Z,2.28
2023-04-10T01:42:50.702Z,2.30
2023-04-10T01:45:23.718Z,1.83
2023-04-10T01:47:51.509Z,1.92
2023-04-10T01:50:20.082Z,2.55
2023-04-10T01:52:48.231Z,2.13
2023-04-10T01:55:15.927Z,2.13
2023-04-10T01:57:42.709Z,2.35
2023-04-10T02:00:10.060Z,1.98
2023-04-10T02:02:37.835Z,1.98
2023-04-10T02:05:04.990Z,2.17
2023-04-10T02:07:39.985Z,2.20
2023-04-10T02:10:15.146Z,2.35
2023-04-10T02:12:54.010Z,2.65
2023-04-10T02:15:23.741Z,2.22
2023-04-10T02:17:52.610Z,2.30
2023-04-10T02:20:19.637Z,1.60
2023-04-10T02:22:47.304Z,1.83
2023-04-10T02:25:15.024Z,2.20
2023-04-10T02:27:41.868Z,2.25
2023-04-10T02:30:09.062Z,2.13
2023-04-10T02:32:35.842Z,1.80
2023-04-10T02:35:03.269Z,2.17
2023-04-10T02:37:31.240Z,1.90
2023-04-10T02:39:57.978Z,2.13
2023-04-10T02:42:24.758Z,1.42
2023-04-10T02:44:51.502Z,1.42
2023-04-10T02:47:18.894Z,2.00
2023-04-10T02:49:45.977Z,2.50
2023-04-10T02:52:12.682Z,1.85
2023-04-10T02:54:40.360Z,2.28
2023-04-10T02:57:07.173Z,2.28
2023-04-10T02:59:34.136Z,2.15
2023-04-10T03:02:01.202Z,1.85
2023-04-10T03:04:29.310Z,2.03
2023-04-10T03:06:56.191Z,1.95
2023-04-10T03:09:22.879Z,1.90
2023-04-10T03:11:49.660Z,2.35
2023-04-10T03:14:17.003Z,1.85
2023-04-10T03:16:44.124Z,2.70
2023-04-10T03:19:12.847Z,1.38
2023-04-10T03:21:39.713Z,1.90
2023-04-10T03:24:07.237Z,1.67
2023-04-10T03:26:33.998Z,1.58
2023-04-10T03:29:00.892Z,1.55
2023-04-10T03:31:27.948Z,1.60
2023-04-10T03:33:54.880Z,1.42
2023-04-10T03:36:21.766Z,1.80
2023-04-10T03:38:48.494Z,1.73
2023-04-10T03:41:15.296Z,2.25
2023-04-10T03:43:42.018Z,1.95
2023-04-10T03:46:08.806Z,2.13
2023-04-10T03:48:35.637Z,1.27
2023-04-10T03:51:02.705Z,1.60
2023-04-10T03:53:29.547Z,1.45
2023-04-10T03:55:56.607Z,1.83
2023-04-10T03:58:23.342Z,1.70
2023-04-10T04:00:50.073Z,1.35
2023-04-10T04:03:16.996Z,1.35
2023-04-10T04:05:43.929Z,1.02
2023-04-10T04:08:10.719Z,1.75
2023-04-10T04:10:37.454Z,1.58
2023-04-10T04:13:04.216Z,1.25
2023-04-10T04:15:31.145Z,1.70
2023-04-10T04:17:58.119Z,1.00
2023-04-10T04:20:24.902Z,1.40
2023-04-10T04:22:51.657Z,0.90
2023-04-10T04:25:19.865Z,1.40
2023-04-10T04:27:46.628Z,1.02
2023-04-10T04:30:13.384Z,1.58
2023-04-10T04:32:40.258Z,1.20
2023-04-10T04:35:07.629Z,1.20
2023-04-10T04:37:34.428Z,0.80
2023-04-10T04:40:01.744Z,0.80
2023-04-10T04:42:28.502Z,1.60
2023-04-10T04:44:55.446Z,0.85
2023-04-10T04:47:24.436Z,0.95
2023-04-10T04:49:51.315Z,0.90
2023-04-10T04:52:18.206Z,1.17
2023-04-10T04:54:45.008Z,0.80
2023-04-10T04:57:11.720Z,0.90
2023-04-10T04:59:38.423Z,0.80
2023-04-10T05:02:05.698Z,0.80
2023-04-10T05:04:32.553Z,0.90
2023-04-10T05:06:59.274Z,1.00
2023-04-10T05:09:26.124Z,1.23
2023-04-10T05:11:54.620Z,1.00
2023-04-10T05:14:22.412Z,1.45
2023-04-10T05:16:49.165Z,1.40
2023-04-10T05:19:16.392Z,1.77
2023-04-10T05:21:43.491Z,0.93
2023-04-10T05:24:10.293Z,1.45
2023-04-10T05:26:37.064Z,1.10
2023-04-10T05:29:04.567Z,0.80
2023-04-10T05:31:31.443Z,2.00
2023-04-10T05:33:58.313Z,1.10
2023-04-10T05:36:25.158Z,0.90
2023-04-10T05:38:52.433Z,0.80
2023-04-10T05:41:19.556Z,0.70
2023-04-10T05:43:46.268Z,0.70
2023-04-10T05:46:13.139Z,0.85
2023-04-10T05:48:39.919Z,0.63
2023-04-10T05:51:07.047Z,0.77
2023-04-10T05:53:33.886Z,0.80
2023-04-10T05:56:02.140Z,1.05
2023-04-10T05:58:29.534Z,0.73
2023-04-10T06:00:57.721Z,0.57
2023-04-10T06:03:24.828Z,1.38
2023-04-10T06:05:51.711Z,0.75
2023-04-10T06:08:19.606Z,0.68
2023-04-10T06:10:49.301Z,0.57
2023-04-10T06:13:16.113Z,0.80
2023-04-10T06:15:43.324Z,0.47
2023-04-10T06:18:10.088Z,0.70
2023-04-10T06:20:36.817Z,0.50
2023-04-10T06:23:03.755Z,0.60
2023-04-10T06:25:30.867Z,0.60
2023-04-10T06:27:57.795Z,0.82
2023-04-10T06:30:24.595Z,0.50
2023-04-10T06:32:51.405Z,1.00
2023-04-10T06:35:18.257Z,0.50
2023-04-10T06:37:45.047Z,0.50
2023-04-10T06:40:14.421Z,0.50
2023-04-10T06:42:41.565Z,0.60
2023-04-10T06:45:08.688Z,0.40
2023-04-10T06:47:35.560Z,0.60
2023-04-10T06:50:02.348Z,0.50
2023-04-10T06:52:29.078Z,0.40
2023-04-10T06:54:55.999Z,0.50
2023-04-10T06:57:22.896Z,0.43
2023-04-10T06:59:49.646Z,0.40
2023-04-10T07:02:16.403Z,1.23
2023-04-10T07:04:43.192Z,0.60
2023-04-10T07:07:12.625Z,0.30
2023-04-10T07:09:42.179Z,0.45
2023-04-10T07:12:08.989Z,0.57
2023-04-10T07:14:35.925Z,0.40
2023-04-10T07:17:03.252Z,0.20
2023-04-10T07:19:30.350Z,0.40
2023-04-10T07:21:57.823Z,0.40
2023-04-10T07:24:24.822Z,0.40
2023-04-10T07:26:51.593Z,0.50
2023-04-10T07:29:18.809Z,0.50
2023-04-10T07:31:45.631Z,0.80
2023-04-10T07:34:12.416Z,0.50
2023-04-10T07:36:39.171Z,0.40
2023-04-10T07:39:06.243Z,1.50
2023-04-10T07:41:33.142Z,0.30
2023-04-10T07:43:59.871Z,0.40
2023-04-10T07:46:27.604Z,0.20
2023-04-10T07:48:55.828Z,0.20
2023-04-10T07:51:23.446Z,0.20
2023-04-10T07:53:50.628Z,0.20
2023-04-10T07:56:21.483Z,0.22
2023-04-10T07:58:49.135Z,0.73
2023-04-10T08:01:16.092Z,0.25
2023-04-10T08:03:44.901Z,0.32
2023-04-10T08:06:12.631Z,0.20
2023-04-10T08:08:40.894Z,0.30
2023-04-10T08:11:23.473Z,0.40
2023-04-10T08:13:51.794Z,0.60
2023-04-10T08:16:27.808Z,0.50
2023-04-10T08:18:56.980Z,0.40
2023-04-10T08:21:26.202Z,0.60
2023-04-10T08:23:55.097Z,0.40
2023-04-10T08:26:22.434Z,0.63
2023-04-10T08:28:51.249Z,0.50
2023-04-10T08:31:19.423Z,0.55
2023-04-10T08:33:46.406Z,0.50
2023-04-10T08:36:18.276Z,0.70
2023-04-10T08:38:47.172Z,0.70
2023-04-10T08:41:16.104Z,0.50
2023-04-10T08:43:43.681Z,0.60
2023-04-10T08:46:10.788Z,0.50
2023-04-10T08:48:46.330Z,0.60
2023-04-10T08:51:26.951Z,0.60
2023-04-10T08:54:04.942Z,0.50
2023-04-10T08:56:33.391Z,0.50
2023-04-10T08:59:03.048Z,0.90
2023-04-10T09:01:30.000Z,0.43
2023-04-10T09:03:57.943Z,0.60
2023-04-10T09:06:24.861Z,0.57
2023-04-10T09:08:51.573Z,0.30
2023-04-10T09:11:18.453Z,0.77
2023-04-10T09:13:45.227Z,0.50
2023-04-10T09:16:13.792Z,0.30
2023-04-10T09:18:45.066Z,0.98
2023-04-10T09:23:39.386Z,0.40
2023-04-10T09:26:26.148Z,0.40
2023-04-10T09:28:57.978Z,0.40
2023-04-10T09:31:51.174Z,0.52
2023-04-10T09:34:22.798Z,0.70
2023-04-10T09:37:00.183Z,0.50
2023-04-10T09:39:43.821Z,0.45
2023-04-10T09:42:11.747Z,0.40
2023-04-10T09:44:40.048Z,0.50
2023-04-10T09:47:20.206Z,0.43
2023-04-10T09:49:52.890Z,0.38
2023-04-10T09:52:22.449Z,0.50
2023-04-10T09:54:49.202Z,0.38
2023-04-10T09:57:20.582Z,0.43
2023-04-10T10:02:17.718Z,0.60
2023-04-10T10:04:46.806Z,0.70
2023-04-10T10:07:17.950Z,0.57
2023-04-10T10:09:45.867Z,0.43
2023-04-10T10:12:15.906Z,0.40
2023-04-10T10:15:02.054Z,0.40
2023-04-10T10:18:00.919Z,0.50
2023-04-10T10:20:31.663Z,0.50
2023-04-10T10:22:59.249Z,0.65
2023-04-10T10:25:26.716Z,0.60
2023-04-10T10:27:54.417Z,0.55
2023-04-10T10:30:29.948Z,0.38
2023-04-10T10:32:59.639Z,0.50
2023-04-10T10:35:29.231Z,0.55
2023-04-10T10:37:58.703Z,0.50
2023-04-10T10:40:32.161Z,0.60
2023-04-10T10:43:23.359Z,0.50
2023-04-10T10:46:02.858Z,0.50
2023-04-10T10:48:29.889Z,1.00
2023-04-10T10:50:59.221Z,0.85
2023-04-10T10:53:34.830Z,0.88
2023-04-10T10:56:19.786Z,0.70
2023-04-10T10:58:47.687Z,0.55
2023-04-10T11:01:15.709Z,1.00
2023-04-10T11:03:44.862Z,0.50
2023-04-10T11:06:20.217Z,0.60
2023-04-10T11:08:55.384Z,1.10
2023-04-10T11:11:27.518Z,0.90
2023-04-10T11:13:57.267Z,1.15
2023-04-10T11:16:43.838Z,0.70
2023-04-10T11:19:16.408Z,0.60
2023-04-10T11:22:04.822Z,0.47
2023-04-10T11:24:53.157Z,0.35
2023-04-10T11:27:39.513Z,0.52
2023-04-10T11:30:36.226Z,0.40
2023-04-10T11:33:04.586Z,0.80
2023-04-10T11:35:32.280Z,0.82
2023-04-10T11:38:12.799Z,0.90
2023-04-10T11:41:02.252Z,0.88
2023-04-10T11:43:29.104Z,0.50
2023-04-10T11:46:11.749Z,0.50
2023-04-10T11:48:38.689Z,0.60
2023-04-10T11:51:12.668Z,0.60
2023-04-10T11:53:41.377Z,0.30
2023-04-10T11:56:23.819Z,0.50
2023-04-10T11:58:54.731Z,0.57
2023-04-10T12:03:49.655Z,0.70
2023-04-10T12:06:16.903Z,0.30
2023-04-10T12:08:46.361Z,0.30
2023-04-10T12:11:13.644Z,0.60
2023-04-10T12:13:40.822Z,0.30
2023-04-10T12:16:09.763Z,0.40
2023-04-10T12:18:37.194Z,0.50
2023-04-10T12:21:06.134Z,0.60
2023-04-10T12:23:38.216Z,0.50
2023-04-10T12:26:16.364Z,0.80
2023-04-10T12:28:52.828Z,0.73
2023-04-10T12:31:36.788Z,0.50
2023-04-10T12:34:05.580Z,0.60
2023-04-10T12:36:35.216Z,0.77
2023-04-10T12:39:04.274Z,0.30
2023-04-10T12:41:32.926Z,0.40
2023-04-10T12:44:11.800Z,0.50
2023-04-10T12:46:39.752Z,0.40
2023-04-10T12:49:15.670Z,0.47
2023-04-10T12:51:50.662Z,0.60
2023-04-10T12:54:32.043Z,0.98
2023-04-10T12:59:29.407Z,0.80
2023-04-10T13:01:56.708Z,0.70
2023-04-10T13:04:24.174Z,0.70
2023-04-10T13:06:54.119Z,0.77
2023-04-10T13:09:21.325Z,0.80
2023-04-10T13:11:49.092Z,0.60
2023-04-10T13:14:17.901Z,0.68
2023-04-10T13:16:44.861Z,0.35
2023-04-10T13:19:13.030Z,0.30
2023-04-10T13:21:39.890Z,0.43
2023-04-10T13:24:06.701Z,0.40
2023-04-10T13:26:33.450Z,0.50
2023-04-10T13:29:00.187Z,0.70
2023-04-10T13:31:27.194Z,1.00
2023-04-10T13:33:54.151Z,0.63
2023-04-10T13:36:20.962Z,0.75
2023-04-10T13:38:47.774Z,1.02
2023-04-10T13:41:14.556Z,1.10
2023-04-10T13:43:41.258Z,0.85
2023-04-10T13:46:08.012Z,1.10
2023-04-10T13:48:54.596Z,1.08
2023-04-10T13:51:21.463Z,1.20
2023-04-10T13:53:48.171Z,1.58
2023-04-10T13:56:14.887Z,1.15
2023-04-10T13:58:41.609Z,0.82
2023-04-10T14:01:08.589Z,0.50
2023-04-10T14:03:35.570Z,0.50
2023-04-10T14:06:02.464Z,0.50
2023-04-10T14:08:29.218Z,0.55
2023-04-10T14:10:56.419Z,0.40
2023-04-10T14:13:23.178Z,0.50
2023-04-10T14:15:52.152Z,0.30
2023-04-10T14:18:19.877Z,0.30
2023-04-10T14:20:46.662Z,0.32
2023-04-10T14:23:18.388Z,0.30
2023-04-10T14:25:46.264Z,0.60
2023-04-10T14:28:22.018Z,1.05
2023-04-10T14:30:50.651Z,1.20
2023-04-10T14:33:20.925Z,1.02
2023-04-10T14:35:48.332Z,1.08
2023-04-10T14:38:16.010Z,1.40
2023-04-10T14:40:42.861Z,1.65
2023-04-10T14:43:09.616Z,1.45
2023-04-10T14:45:36.317Z,1.60
2023-04-10T14:48:03.252Z,1.42
2023-04-10T14:50:32.556Z,1.35
2023-04-10T14:53:02.765Z,1.05
2023-04-10T14:55:30.634Z,1.17
2023-04-10T14:57:58.890Z,1.17
2023-04-10T15:00:26.200Z,1.05
2023-04-10T15:02:53.135Z,1.83
2023-04-10T15:05:20.199Z,1.17
2023-04-10T15:07:47.012Z,1.30
2023-04-10T15:10:13.854Z,1.25
2023-04-10T15:12:40.660Z,0.80
2023-04-10T15:15:07.909Z,1.38
2023-04-10T15:17:34.808Z,0.90
2023-04-10T15:20:01.650Z,1.05
2023-04-10T15:22:29.442Z,1.52
2023-04-10T15:24:56.179Z,0.95
2023-04-10T15:27:23.042Z,0.80
2023-04-10T15:29:50.044Z,1.20
2023-04-10T15:32:16.852Z,1.02
2023-04-10T15:34:44.705Z,1.00
2023-04-10T15:37:11.951Z,1.27
2023-04-10T15:39:38.752Z,1.30
2023-04-10T15:42:08.421Z,1.65
2023-04-10T15:44:35.168Z,1.20
2023-04-10T15:47:01.943Z,1.55
2023-04-10T15:49:37.109Z,1.20
2023-04-10T15:52:06.380Z,3.17
2023-04-10T15:54:34.996Z,2.03
2023-04-10T15:57:02.404Z,2.08
2023-04-10T15:59:29.654Z,2.55
2023-04-10T16:01:56.599Z,1.70
2023-04-10T16:04:23.830Z,1.33
2023-04-10T16:06:50.817Z,1.70
2023-04-10T16:11:48.048Z,1.25
2023-04-10T16:14:14.730Z,1.48
2023-04-10T16:16:41.498Z,1.08
2023-04-10T16:19:08.222Z,1.88
2023-04-10T16:21:35.523Z,1.77
2023-04-10T16:24:04.486Z,1.60
2023-04-10T16:26:31.327Z,2.00
2023-04-10T16:28:58.055Z,1.65
2023-04-10T16:31:25.120Z,1.40
2023-04-10T16:33:51.913Z,1.45
2023-04-10T16:36:18.622Z,1.83
2023-04-10T16:38:45.704Z,1.70
2023-04-10T16:41:12.727Z,2.38
2023-04-10T16:43:39.574Z,1.55
2023-04-10T16:46:07.399Z,2.25
2023-04-10T16:48:36.197Z,1.95
2023-04-10T16:51:06.991Z,1.60
2023-04-10T16:53:36.098Z,1.58
2023-04-10T16:56:04.968Z,1.45
2023-04-10T16:58:33.933Z,2.17
2023-04-10T17:01:00.940Z,1.55
2023-04-10T17:03:27.876Z,1.35
2023-04-10T17:05:54.717Z,1.38
2023-04-10T17:08:21.490Z,1.83
2023-04-10T17:10:48.201Z,1.30
2023-04-10T17:13:15.109Z,1.27
2023-04-10T17:15:41.934Z,1.23
2023-04-10T17:18:08.669Z,1.00
2023-04-10T17:20:37.160Z,1.05
2023-04-10T17:23:04.110Z,1.25
2023-04-10T17:25:30.983Z,0.80
2023-04-10T17:27:58.011Z,1.08
2023-04-10T17:30:24.817Z,0.90
2023-04-10T17:32:51.859Z,1.35
2023-04-10T17:35:18.750Z,1.60
2023-04-10T17:37:45.610Z,1.77
2023-04-10T17:40:12.729Z,1.23
2023-04-10T17:42:39.521Z,1.00
2023-04-10T17:45:06.892Z,1.50
2023-04-10T17:47:33.626Z,1.30
2023-04-10T17:50:00.443Z,1.33
2023-04-10T17:52:27.281Z,2.10
2023-04-10T17:54:54.009Z,1.60
2023-04-10T17:57:20.907Z,2.08
2023-04-10T17:59:47.668Z,1.48
2023-04-10T18:02:14.526Z,1.60
2023-04-10T18:04:41.262Z,1.73
2023-04-10T18:07:08.035Z,1.15
2023-04-10T18:09:34.749Z,1.50
2023-04-10T18:12:01.556Z,1.60
2023-04-10T18:14:28.304Z,2.10
2023-04-10T18:16:55.261Z,1.50
2023-04-10T18:19:22.111Z,2.63
2023-04-10T18:21:49.477Z,1.73
2023-04-10T18:24:16.262Z,2.63
2023-04-10T18:26:45.275Z,2.22
2023-04-10T18:29:12.053Z,1.80
2023-04-10T18:31:38.778Z,1.30
2023-04-10T18:34:08.261Z,1.92
2023-04-10T18:36:35.661Z,1.52
2023-04-10T18:39:02.404Z,1.30
2023-04-10T18:41:29.102Z,1.50
2023-04-10T18:44:04.089Z,1.65
2023-04-10T18:46:32.707Z,1.63
2023-04-10T18:49:01.563Z,1.77
2023-04-10T18:51:28.776Z,1.88
2023-04-10T18:53:55.952Z,2.42
2023-04-10T18:56:23.236Z,2.03
2023-04-10T18:58:50.381Z,1.90
2023-04-10T19:01:20.784Z,2.08
2023-04-10T19:03:50.174Z,2.08
2023-04-10T19:06:18.647Z,1.80
2023-04-10T19:08:45.379Z,2.80
2023-04-10T19:11:12.468Z,1.27
2023-04-10T19:13:39.260Z,1.80
2023-04-10T19:16:06.416Z,1.55
2023-04-10T19:18:33.167Z,1.88
2023-04-10T19:20:59.986Z,1.80
2023-04-10T19:23:26.828Z,1.58
2023-04-10T19:25:54.765Z,1.60
2023-04-10T19:28:23.517Z,1.88
2023-04-10T19:30:50.537Z,1.88
2023-04-10T19:33:17.425Z,1.38
2023-04-10T19:35:44.423Z,1.58
2023-04-10T19:38:11.412Z,1.30
2023-04-10T19:40:38.239Z,1.42
2023-04-10T19:43:05.024Z,1.80
2023-04-10T19:45:33.161Z,1.40
2023-04-10T19:48:00.517Z,1.48
2023-04-10T19:50:30.141Z,1.73
2023-04-10T19:52:57.461Z,1.60
2023-04-10T19:55:24.365Z,2.38
2023-04-10T19:57:51.272Z,1.48
2023-04-10T20:00:18.523Z,1.10
2023-04-10T20:02:45.458Z,2.00
2023-04-10T20:05:12.545Z,2.70
2023-04-10T20:07:39.374Z,1.73
2023-04-10T20:10:06.605Z,2.35
2023-04-10T20:12:33.341Z,1.90
2023-04-10T20:15:04.197Z,1.95
2023-04-10T20:17:31.208Z,2.00
2023-04-10T20:19:58.300Z,2.08
2023-04-10T20:22:25.548Z,2.20
2023-04-10T20:24:52.392Z,1.60
2023-04-10T20:27:19.134Z,1.83
2023-04-10T20:29:45.868Z,1.50
2023-04-10T20:32:12.639Z,2.70
2023-04-10T20:34:39.344Z,1.63
2023-04-10T20:37:06.182Z,1.63
2023-04-10T20:39:33.569Z,1.52
2023-04-10T20:42:00.337Z,2.50
2023-04-10T20:44:27.099Z,3.42
2023-04-10T20:46:53.963Z,2.20
2023-04-10T20:49:20.832Z,1.92
2023-04-10T20:51:47.572Z,2.28
2023-04-10T20:54:14.358Z,1.90
2023-04-10T20:56:43.726Z,1.40
2023-04-10T20:59:11.443Z,2.85
2023-04-10T21:01:38.723Z,1.85
2023-04-10T21:04:06.317Z,2.03
2023-04-10T21:06:33.810Z,2.22
2023-04-10T21:09:00.836Z,2.35
2023-04-10T21:11:27.740Z,1.85
2023-04-10T21:13:54.728Z,2.40
2023-04-10T21:16:21.650Z,2.28
2023-04-10T21:18:48.541Z,2.25
2023-04-10T21:21:15.615Z,2.85
2023-04-10T21:23:42.362Z,1.95
2023-04-10T21:26:09.080Z,2.95
2023-04-10T21:28:35.985Z,1.80
2023-04-10T21:31:02.789Z,2.25
2023-04-10T21:33:31.428Z,2.47
2023-04-10T21:35:58.236Z,2.63
2023-04-10T21:38:25.055Z,2.28
2023-04-10T21:40:55.972Z,2.15
2023-04-10T21:43:22.797Z,2.25
2023-04-10T21:45:49.606Z,2.10
2023-04-10T21:48:16.620Z,1.98
2023-04-10T21:50:43.498Z,2.10
2023-04-10T21:53:10.293Z,2.22
2023-04-10T21:55:37.120Z,2.50
2023-04-10T21:58:04.433Z,1.70
2023-04-10T22:00:31.254Z,2.10
2023-04-10T22:02:58.122Z,1.60
2023-04-10T22:05:25.050Z,1.63
2023-04-10T22:07:52.359Z,1.85
2023-04-10T22:10:19.797Z,1.65
2023-04-10T22:12:48.644Z,1.30
2023-04-10T22:15:16.240Z,1.55
2023-04-10T22:17:43.135Z,3.03
2023-04-10T22:20:10.873Z,2.08
2023-04-10T22:22:37.692Z,1.92
2023-04-10T22:25:04.870Z,1.75
2023-04-10T22:27:32.947Z,1.45
2023-04-10T22:30:03.854Z,1.30
2023-04-10T22:34:59.718Z,2.20
2023-04-10T22:37:27.191Z,1.63
2023-04-10T22:39:56.229Z,1.80
2023-04-10T22:42:23.770Z,1.27
2023-04-10T22:44:50.605Z,2.22
2023-04-10T22:47:17.425Z,1.55
2023-04-10T22:49:44.605Z,1.60
2023-04-10T22:52:12.831Z,1.17
2023-04-10T22:54:39.591Z,1.92
2023-04-10T22:57:06.318Z,1.45
2023-04-10T22:59:33.129Z,1.63
2023-04-10T23:02:00.228Z,1.52
2023-04-10T23:04:27.211Z,1.08
2023-04-10T23:06:54.009Z,1.02
2023-04-10T23:09:20.835Z,1.30
2023-04-10T23:11:47.616Z,1.27
2023-04-10T23:14:14.358Z,1.70
2023-04-10T23:16:41.077Z,1.17
2023-04-10T23:19:07.800Z,1.30
2023-04-10T23:21:34.691Z,1.00
2023-04-10T23:24:01.531Z,1.23
2023-04-10T23:26:31.337Z,1.42
2023-04-10T23:28:58.215Z,1.20
2023-04-10T23:31:25.625Z,1.58
2023-04-10T23:33:52.423Z,1.38
2023-04-10T23:36:19.121Z,1.20
2023-04-10T23:38:45.893Z,1.30
2023-04-10T23:41:12.661Z,1.50
2023-04-10T23:43:39.458Z,3.20
2023-04-10T23:46:06.512Z,1.83
2023-04-10T23:48:33.333Z,1.65
2023-04-10T23:51:07.781Z,1.55
2023-04-10T23:53:34.970Z,1.85
2023-04-10T23:56:02.014Z,1.60
2023-04-10T23:58:28.732Z,1.35
